NOAA Web Site Link Tides and Currents Home Page Transparent placeholder image

PORTS® Data Listing: 8548989 Newbold, PA

CO-OPS RAW PORTS DATA

************************      PRELIMINARY DATA      ************************** 

     THIS RAW DATA HAS NOT BEEN SUBJECT TO THE NATIONAL OCEAN SERVICE'S        
     QUALITY CONTROL OR QUALITY ASSURANCE PROCEDURES AND DOES NOT MEET         
     THE CRITERIA AND STANDARDS OF OFFICIAL NATIONAL OCEAN SERVICE             
     DATA.  IT IS RELEASED FOR LIMITED PUBLIC USE AS PRELIMINARY DATA TO       
     BE USED ONLY WITH APPROPRIATE CAUTION.                                    

************************      PRELIMINARY DATA      ************************** 


       CD   -   Calendar date
       T    -   Time
       TZ   -   Timezone
       PW   -   Predicted water level (feet above MLLW)
       OW   -   Observed water level (feet above MLLW)
       WS   -   Wind speed (knots)
       WD   -   Wind direction (degrees true)
       WG   -   Wind gust (knots)
       AT   -   Air temperature (degrees farenheit)
       WT   -   Water temperature (degrees farenheit)
       AP   -   Air pressure (millibars)
       SA   -   Salinty (PSU - Practical Salinity Units)
       SG   -   Specific gravity
       RH   -   Relative humidity
       AG   -   Air gap (feet)
       VI   -   Visibility (nautical miles)

       ** NOTE **
       A variable that has its data fields filled with "9"s, indicates that
       data was not collected for that sample period.
       **********


STATION NAME: Newbold (8548989)
****************************************************************************************************
    CD       T    TZ    PW     OW    WS   WD   WG    AT    WT    AP    SA    SG     RH    AG   VI
****************************************************************************************************
2019/03/26 02:54 EDT    0.29   1.28    9   46   14  39.4  43.9 1020.6 -9.9 -9.999 -99.9 -99.99 -9.99
2019/03/26 03:00 EDT    0.41   1.60    9   47   19  39.2  43.9 1020.6 -9.9 -9.999 -99.9 -99.99 -9.99
2019/03/26 03:06 EDT    0.55   1.93    9   44   16  38.8  43.7 1020.5 -9.9 -9.999 -99.9 -99.99 -9.99
2019/03/26 03:12 EDT    0.71   2.23    7   46   15  38.5  43.9 1020.5 -9.9 -9.999 -99.9 -99.99 -9.99
2019/03/26 03:18 EDT    0.89   2.52    6   51   11  38.3  43.9 1020.6 -9.9 -9.999 -99.9 -99.99 -9.99
2019/03/26 03:24 EDT    1.09   2.80    4   48    8  37.9  43.9 1020.5 -9.9 -9.999 -99.9 -99.99 -9.99
2019/03/26 03:30 EDT    1.30   3.09    4   39    9  37.8  43.9 1020.5 -9.9 -9.999 -99.9 -99.99 -9.99
2019/03/26 03:36 EDT    1.53   3.39    8   42   15  37.6  43.9 1020.4 -9.9 -9.999 -99.9 -99.99 -9.99
2019/03/26 03:42 EDT    1.77   3.70    6   42   16  37.2  43.9 1020.5 -9.9 -9.999 -99.9 -99.99 -9.99
2019/03/26 03:48 EDT    2.02   4.03    7   44   17  37.0  43.9 1020.7 -9.9 -9.999 -99.9 -99.99 -9.99
2019/03/26 03:54 EDT    2.27   4.36    7   44   12  37.0  43.9 1020.8 -9.9 -9.999 -99.9 -99.99 -9.99
2019/03/26 04:00 EDT    2.54   4.68    5   36   13  36.7  43.9 1020.7 -9.9 -9.999 -99.9 -99.99 -9.99
2019/03/26 04:06 EDT    2.81   4.98    5   33   11  36.5  43.7 1020.6 -9.9 -9.999 -99.9 -99.99 -9.99
2019/03/26 04:12 EDT    3.08   5.24    5   32   10  36.3  43.7 1020.7 -9.9 -9.999 -99.9 -99.99 -9.99
2019/03/26 04:18 EDT    3.35   5.49    4   32   12  36.1  43.7 1020.9 -9.9 -9.999 -99.9 -99.99 -9.99
2019/03/26 04:24 EDT    3.62   5.69    5   33   11  36.0  43.7 1021.0 -9.9 -9.999 -99.9 -99.99 -9.99
2019/03/26 04:30 EDT    3.88   5.89    5   28   13  36.0  43.7 1021.0 -9.9 -9.999 -99.9 -99.99 -9.99
2019/03/26 04:36 EDT    4.14   6.06    8   39   14  35.8  43.5 1021.2 -9.9 -9.999 -99.9 -99.99 -9.99
2019/03/26 04:42 EDT    4.40   6.23    7   44   13  35.6  43.5 1021.3 -9.9 -9.999 -99.9 -99.99 -9.99
2019/03/26 04:48 EDT    4.64   6.40    5   30   10  35.4  43.5 1021.4 -9.9 -9.999 -99.9 -99.99 -9.99
2019/03/26 04:54 EDT    4.87   6.56    5   36   11  35.2  43.5 1021.4 -9.9 -9.999 -99.9 -99.99 -9.99
2019/03/26 05:00 EDT    5.10   6.71    5   39   13  35.2  43.5 1021.4 -9.9 -9.999 -99.9 -99.99 -9.99
2019/03/26 05:06 EDT    5.32   6.86    4   34   11  34.9  43.5 1021.5 -9.9 -9.999 -99.9 -99.99 -9.99
2019/03/26 05:12 EDT    5.52   7.00    4   35   10  34.7  43.5 1021.7 -9.9 -9.999 -99.9 -99.99 -9.99
2019/03/26 05:18 EDT    5.72   7.14    6   37   13  34.7  43.3 1021.8 -9.9 -9.999 -99.9 -99.99 -9.99
2019/03/26 05:24 EDT    5.90   7.26    4   35    8  34.5  43.3 1021.9 -9.9 -9.999 -99.9 -99.99 -9.99
2019/03/26 05:30 EDT    6.08   7.38    4   38   10  34.3  43.3 1022.0 -9.9 -9.999 -99.9 -99.99 -9.99
2019/03/26 05:36 EDT    6.25   7.50    3   33   10  34.2  43.3 1022.1 -9.9 -9.999 -99.9 -99.99 -9.99
2019/03/26 05:42 EDT    6.41   7.62    6   46   11  34.2  43.3 1022.2 -9.9 -9.999 -99.9 -99.99 -9.99
2019/03/26 05:48 EDT    6.56   7.73    4   42    9  34.0  43.3 1022.3 -9.9 -9.999 -99.9 -99.99 -9.99
2019/03/26 05:54 EDT    6.70   7.85    5   47    9  33.8  43.3 1022.4 -9.9 -9.999 -99.9 -99.99 -9.99
2019/03/26 06:00 EDT    6.84   7.96    6   46   10  33.8  43.3 1022.4 -9.9 -9.999 -99.9 -99.99 -9.99
2019/03/26 06:06 EDT    6.98   8.05    4   36    8  33.6  43.3 1022.5 -9.9 -9.999 -99.9 -99.99 -9.99
2019/03/26 06:12 EDT    7.10   8.15    3   36    7  33.4  43.3 1022.6 -9.9 -9.999 -99.9 -99.99 -9.99
2019/03/26 06:18 EDT    7.23   8.24    5   44   11  33.4  43.3 1022.7 -9.9 -9.999 -99.9 -99.99 -9.99
2019/03/26 06:24 EDT    7.34   8.32    4   44    8  33.4  43.3 1022.8 -9.9 -9.999 -99.9 -99.99 -9.99
2019/03/26 06:30 EDT    7.46   8.40    6   44    9  33.3  43.3 1022.8 -9.9 -9.999 -99.9 -99.99 -9.99
2019/03/26 06:36 EDT    7.57   8.48    4   42    8  33.1  43.3 1022.8 -9.9 -9.999 -99.9 -99.99 -9.99
2019/03/26 06:42 EDT    7.67   8.56    4   44    8  32.9  43.3 1023.0 -9.9 -9.999 -99.9 -99.99 -9.99
2019/03/26 06:48 EDT    7.77   8.63    3   33    8  32.7  43.3 1023.0 -9.9 -9.999 -99.9 -99.99 -9.99
2019/03/26 06:54 EDT    7.86   8.69    3   38    8  32.5  43.3 1023.0 -9.9 -9.999 -99.9 -99.99 -9.99
2019/03/26 07:00 EDT    7.94   8.73    4   37    8  32.5  43.3 1023.2 -9.9 -9.999 -99.9 -99.99 -9.99
2019/03/26 07:06 EDT    8.02   8.77    4   37    7  32.5  43.3 1023.3 -9.9 -9.999 -99.9 -99.99 -9.99
2019/03/26 07:12 EDT    8.08   8.79    3   33    7  32.5  43.3 1023.4 -9.9 -9.999 -99.9 -99.99 -9.99
2019/03/26 07:18 EDT    8.14   8.80    6   38   10  32.7  43.3 1023.5 -9.9 -9.999 -99.9 -99.99 -9.99
2019/03/26 07:24 EDT    8.19   8.81    3   26    7  32.9  43.3 1023.6 -9.9 -9.999 -99.9 -99.99 -9.99
2019/03/26 07:30 EDT    8.22   8.81    4   30    6  32.9  43.3 1023.6 -9.9 -9.999 -99.9 -99.99 -9.99
2019/03/26 07:36 EDT    8.25   8.80    3   38    8  33.3  43.3 1023.7 -9.9 -9.999 -99.9 -99.99 -9.99
2019/03/26 07:42 EDT    8.26   8.76    6   43   11  33.1  43.3 1023.7 -9.9 -9.999 -99.9 -99.99 -9.99
2019/03/26 07:48 EDT    8.26   8.73    4   31   10  33.4  43.3 1023.8 -9.9 -9.999 -99.9 -99.99 -9.99
2019/03/26 07:54 EDT    8.24   8.67    4   32    9  33.6  43.3 1023.9 -9.9 -9.999 -99.9 -99.99 -9.99
2019/03/26 08:00 EDT    8.21   8.59    3   33   11  34.0  43.3 1024.0 -9.9 -9.999 -99.9 -99.99 -9.99
2019/03/26 08:06 EDT    8.17   8.51    6   39   10  34.2  43.3 1024.1 -9.9 -9.999 -99.9 -99.99 -9.99
2019/03/26 08:12 EDT    8.11   8.41    5   46   10  34.3  43.3 1024.2 -9.9 -9.999 -99.9 -99.99 -9.99
2019/03/26 08:18 EDT    8.04   8.30    5   57   10  34.7  43.3 1024.3 -9.9 -9.999 -99.9 -99.99 -9.99
2019/03/26 08:24 EDT    7.96   8.18    6   59   12  34.7  43.3 1024.5 -9.9 -9.999 -99.9 -99.99 -9.99
2019/03/26 08:30 EDT    7.87   8.05    6   62   12  35.1  43.3 1024.6 -9.9 -9.999 -99.9 -99.99 -9.99
2019/03/26 08:36 EDT    7.76   7.91    7   60   13  35.2  43.3 1024.7 -9.9 -9.999 -99.9 -99.99 -9.99
2019/03/26 08:42 EDT    7.65   7.78    7   55   11  35.2  43.3 1024.7 -9.9 -9.999 -99.9 -99.99 -9.99
2019/03/26 08:48 EDT    7.52   7.65    8   58   12  35.6  43.3 1024.7 -9.9 -9.999 -99.9 -99.99 -9.99
2019/03/26 08:54 EDT    7.39   7.50    7   59   11  35.8  43.3 1024.7 -9.9 -9.999 -99.9 -99.99 -9.99
2019/03/26 09:00 EDT    7.25   7.36    6   44   11  36.5  43.5 1024.8 -9.9 -9.999 -99.9 -99.99 -9.99
2019/03/26 09:06 EDT    7.10   7.20   10   68   13  36.1  43.5 1024.8 -9.9 -9.999 -99.9 -99.99 -9.99
2019/03/26 09:12 EDT    6.95   7.05   10   50   15  36.0  43.5 1024.8 -9.9 -9.999 -99.9 -99.99 -9.99
2019/03/26 09:18 EDT    6.80   6.90   10   49   14  36.3  43.3 1024.8 -9.9 -9.999 -99.9 -99.99 -9.99
2019/03/26 09:24 EDT    6.64   6.75    5   49   12  37.2  43.3 1024.9 -9.9 -9.999 -99.9 -99.99 -9.99
2019/03/26 09:30 EDT    6.48   6.59    8   62   15  36.9  43.5 1025.0 -9.9 -9.999 -99.9 -99.99 -9.99
2019/03/26 09:36 EDT    6.32   6.44    6   47   12  37.9  43.5 1025.1 -9.9 -9.999 -99.9 -99.99 -9.99
2019/03/26 09:42 EDT    6.16   6.29    8   63   15  37.9  43.5 1025.2 -9.9 -9.999 -99.9 -99.99 -9.99
2019/03/26 09:48 EDT    6.00   6.14    8   54   13  38.3  43.5 1025.3 -9.9 -9.999 -99.9 -99.99 -9.99
2019/03/26 09:54 EDT    5.84   5.99    9   58   16  38.5  43.3 1025.3 -9.9 -9.999 -99.9 -99.99 -9.99
2019/03/26 10:00 EDT    5.68   5.84    8   47   14  39.0  43.3 1025.4 -9.9 -9.999 -99.9 -99.99 -9.99
2019/03/26 10:06 EDT    5.53   5.71    9   91   15  39.4  43.3 1025.5 -9.9 -9.999 -99.9 -99.99 -9.99
2019/03/26 10:12 EDT    5.38   5.57    8   75   14  39.6  43.3 1025.6 -9.9 -9.999 -99.9 -99.99 -9.99
2019/03/26 10:18 EDT    5.22   5.44    9   63   13  39.7  43.3 1025.7 -9.9 -9.999 -99.9 -99.99 -9.99
2019/03/26 10:24 EDT    5.07   5.30    8   49   13  40.1  43.3 1025.8 -9.9 -9.999 -99.9 -99.99 -9.99
2019/03/26 10:30 EDT    4.93   5.17    9   58   16  40.1  43.3 1025.9 -9.9 -9.999 -99.9 -99.99 -9.99
2019/03/26 10:36 EDT    4.78   5.03    7   60   18  40.1  43.3 1025.9 -9.9 -9.999 -99.9 -99.99 -9.99
2019/03/26 10:42 EDT    4.64   4.91   11   86   17  39.6  43.3 1025.9 -9.9 -9.999 -99.9 -99.99 -9.99
2019/03/26 10:48 EDT    4.50   4.78   10   84   17  40.1  43.3 1026.1 -9.9 -9.999 -99.9 -99.99 -9.99
2019/03/26 10:54 EDT    4.36   4.65    8   76   17  40.6  43.3 1026.1 -9.9 -9.999 -99.9 -99.99 -9.99
2019/03/26 11:00 EDT    4.22   4.53    7   63   14  40.8  43.3 1026.2 -9.9 -9.999 -99.9 -99.99 -9.99
2019/03/26 11:06 EDT    4.09   4.41    6   48   12  41.4  43.5 1026.3 -9.9 -9.999 -99.9 -99.99 -9.99
2019/03/26 11:12 EDT    3.96   4.29    8   49   13  41.5  43.5 1026.3 -9.9 -9.999 -99.9 -99.99 -9.99
2019/03/26 11:18 EDT    3.82   4.17   12   87   16  40.5  43.5 1026.4 -9.9 -9.999 -99.9 -99.99 -9.99
2019/03/26 11:24 EDT    3.69   4.05    7   83   14  42.1  43.5 1026.4 -9.9 -9.999 -99.9 -99.99 -9.99
2019/03/26 11:30 EDT    3.57   3.93    5   52   10  42.8  43.5 1026.4 -9.9 -9.999 -99.9 -99.99 -9.99
2019/03/26 11:36 EDT    3.44   3.82    4   37   12  42.1  43.5 1026.4 -9.9 -9.999 -99.9 -99.99 -9.99
2019/03/26 11:42 EDT    3.31   3.71    7   66   11  42.4  43.5 1026.5 -9.9 -9.999 -99.9 -99.99 -9.99
2019/03/26 11:48 EDT    3.19   3.59    4   82   10  43.0  43.5 1026.5 -9.9 -9.999 -99.9 -99.99 -9.99
2019/03/26 11:54 EDT    3.07   3.49    8   48   13  42.6  43.5 1026.5 -9.9 -9.999 -99.9 -99.99 -9.99
2019/03/26 12:00 EDT    2.95   3.36    6   91   10  42.1  43.5 1026.5 -9.9 -9.999 -99.9 -99.99 -9.99
2019/03/26 12:06 EDT    2.83   3.27    6   40   10  42.8  43.5 1026.5 -9.9 -9.999 -99.9 -99.99 -9.99
2019/03/26 12:12 EDT    2.71   3.17    5   33    9  43.3  43.5 1026.3 -9.9 -9.999 -99.9 -99.99 -9.99
2019/03/26 12:18 EDT    2.60   3.05    8   60   14  41.9  43.5 1026.5 -9.9 -9.999 -99.9 -99.99 -9.99
2019/03/26 12:24 EDT    2.48   2.95    5   51    8  43.5  43.5 1026.4 -9.9 -9.999 -99.9 -99.99 -9.99
2019/03/26 12:30 EDT    2.37   2.85    6   20   11  43.7  43.7 1026.4 -9.9 -9.999 -99.9 -99.99 -9.99
2019/03/26 12:36 EDT    2.25   2.74    6   38   12  44.1  43.7 1026.4 -9.9 -9.999 -99.9 -99.99 -9.99
2019/03/26 12:42 EDT    2.14   2.63    7   60   11  43.5  43.7 1026.4 -9.9 -9.999 -99.9 -99.99 -9.99
2019/03/26 12:48 EDT    2.02   2.53    8   53   12  43.3  43.7 1026.4 -9.9 -9.999 -99.9 -99.99 -9.99
2019/03/26 12:54 EDT    1.90   2.43    4   37    9  44.2  43.7 1026.4 -9.9 -9.999 -99.9 -99.99 -9.99
2019/03/26 13:00 EDT    1.79   2.33    8   64   13  44.1  43.7 1026.4 -9.9 -9.999 -99.9 -99.99 -9.99
2019/03/26 13:06 EDT    1.67   2.24    8   60   12  43.2  43.7 1026.4 -9.9 -9.999 -99.9 -99.99 -9.99
2019/03/26 13:12 EDT    1.55   2.14    7   20   12  44.4  43.7 1026.3 -9.9 -9.999 -99.9 -99.99 -9.99
2019/03/26 13:18 EDT    1.42   2.04    4   23   10  44.8  43.7 1026.2 -9.9 -9.999 -99.9 -99.99 -9.99
2019/03/26 13:24 EDT    1.30   1.94    6   15   12  44.6  43.7 1026.1 -9.9 -9.999 -99.9 -99.99 -9.99
2019/03/26 13:30 EDT    1.18   1.85    7   70   13  45.1  43.7 1026.2 -9.9 -9.999 -99.9 -99.99 -9.99
2019/03/26 13:36 EDT    1.06   1.76    5   35   10  44.6  43.7 1026.2 -9.9 -9.999 -99.9 -99.99 -9.99
2019/03/26 13:42 EDT    0.93   1.67    4   30    8  45.0  43.7 1026.1 -9.9 -9.999 -99.9 -99.99 -9.99
2019/03/26 13:48 EDT    0.81   1.58    9   66   13  44.4  43.7 1026.1 -9.9 -9.999 -99.9 -99.99 -9.99
2019/03/26 13:54 EDT    0.69   1.49    7   61   13  45.5  43.7 1026.1 -9.9 -9.999 -99.9 -99.99 -9.99
2019/03/26 14:00 EDT    0.58   1.40    9   48   13  45.1  43.7 1026.1 -9.9 -9.999 -99.9 -99.99 -9.99
2019/03/26 14:06 EDT    0.47   1.32    9   62   13  45.1  43.7 1026.0 -9.9 -9.999 -99.9 -99.99 -9.99
2019/03/26 14:12 EDT    0.36   1.23    4   71   11  45.5  43.9 1025.9 -9.9 -9.999 -99.9 -99.99 -9.99
2019/03/26 14:18 EDT    0.26   1.16    9   60   11  46.0  43.9 1025.8 -9.9 -9.999 -99.9 -99.99 -9.99
2019/03/26 14:24 EDT    0.18   1.08    4   39   10  46.6  43.9 1025.8 -9.9 -9.999 -99.9 -99.99 -9.99
2019/03/26 14:30 EDT    0.10   1.01    7   57   13  45.7  43.9 1025.7 -9.9 -9.999 -99.9 -99.99 -9.99
2019/03/26 14:36 EDT    0.03   0.94    5   32   12  46.2  43.9 1025.7 -9.9 -9.999 -99.9 -99.99 -9.99
2019/03/26 14:42 EDT   -0.02   0.86    5  360    8  46.4  43.9 1025.7 -9.9 -9.999 -99.9 -99.99 -9.99
2019/03/26 14:48 EDT   -0.05   0.80    5   56   10  46.9  43.9 1025.6 -9.9 -9.999 -99.9 -99.99 -9.99
2019/03/26 14:54 EDT   -0.07   0.74    5   78    9  47.1  43.9 1025.4 -9.9 -9.999 -99.9 -99.99 -9.99
2019/03/26 15:00 EDT   -0.07   0.68    5   55    8  47.5  43.9 1025.4 -9.9 -9.999 -99.9 -99.99 -9.99
2019/03/26 15:06 EDT   -0.05   0.64    4   29    8  47.3  43.9 1025.3 -9.9 -9.999 -99.9 -99.99 -9.99
2019/03/26 15:12 EDT   -0.01   0.62    4   22   10  47.7  43.9 1025.2 -9.9 -9.999 -99.9 -99.99 -9.99
2019/03/26 15:18 EDT    0.05   0.61    6   56   11  47.7  43.9 1025.2 -9.9 -9.999 -99.9 -99.99 -9.99
2019/03/26 15:24 EDT    0.13   0.61    6   26   12  47.5  43.9 1025.1 -9.9 -9.999 -99.9 -99.99 -9.99
2019/03/26 15:30 EDT    0.23   0.67    5   22   11  48.2  43.9 1025.1 -9.9 -9.999 -99.9 -99.99 -9.99
2019/03/26 15:36 EDT    0.35   0.78    6   49   12  47.3  43.9 1025.2 -9.9 -9.999 -99.9 -99.99 -9.99
2019/03/26 15:42 EDT    0.49   0.96    4   74   10  47.8  43.9 1025.1 -9.9 -9.999 -99.9 -99.99 -9.99
2019/03/26 15:48 EDT    0.65   1.23    7   43   15  47.3  43.9 1025.1 -9.9 -9.999 -99.9 -99.99 -9.99
2019/03/26 15:54 EDT    0.82   1.55    7   46   13  47.5  43.9 1025.1 -9.9 -9.999 -99.9 -99.99 -9.99
2019/03/26 16:00 EDT    1.01   1.87    7   60   12  48.0  43.9 1025.1 -9.9 -9.999 -99.9 -99.99 -9.99
2019/03/26 16:06 EDT    1.22   2.17    8   70   11  47.7  43.9 1025.0 -9.9 -9.999 -99.9 -99.99 -9.99
2019/03/26 16:12 EDT    1.43   2.45    6  359   10  47.5  43.9 1025.1 -9.9 -9.999 -99.9 -99.99 -9.99
2019/03/26 16:18 EDT    1.66   2.72    3   16    9  47.8  43.9 1025.1 -9.9 -9.999 -99.9 -99.99 -9.99
2019/03/26 16:24 EDT    1.89   3.00    5   20   11  48.0  43.9 1025.1 -9.9 -9.999 -99.9 -99.99 -9.99
2019/03/26 16:30 EDT    2.13   3.28    6   23   10  48.4  43.9 1025.1 -9.9 -9.999 -99.9 -99.99 -9.99
2019/03/26 16:36 EDT    2.37   3.56    6   18   10  48.6  43.9 1025.0 -9.9 -9.999 -99.9 -99.99 -9.99
2019/03/26 16:42 EDT    2.61   3.92    6    8   11  49.3  43.9 1025.0 -9.9 -9.999 -99.9 -99.99 -9.99
2019/03/26 16:48 EDT    2.85   4.24    5   17    8  49.6  43.9 1025.0 -9.9 -9.999 -99.9 -99.99 -9.99
2019/03/26 16:54 EDT    3.10   4.56    7   50   10  49.1  43.7 1025.0 -9.9 -9.999 -99.9 -99.99 -9.99
2019/03/26 17:00 EDT    3.33   4.88    5   15   10  49.6  43.7 1025.0 -9.9 -9.999 -99.9 -99.99 -9.99
2019/03/26 17:06 EDT    3.57   5.15    6   16   11  49.1  43.7 1025.1 -9.9 -9.999 -99.9 -99.99 -9.99
2019/03/26 17:12 EDT    3.79   5.38    4   14    9  49.3  43.7 1025.1 -9.9 -9.999 -99.9 -99.99 -9.99
2019/03/26 17:18 EDT    4.01   5.60    4   23    9  49.1  43.7 1025.1 -9.9 -9.999 -99.9 -99.99 -9.99
2019/03/26 17:24 EDT    4.22   5.79    9   10   15  49.3  43.5 1025.1 -9.9 -9.999 -99.9 -99.99 -9.99
2019/03/26 17:30 EDT    4.43   5.97    5   38    9  48.9  43.5 1025.2 -9.9 -9.999 -99.9 -99.99 -9.99
2019/03/26 17:36 EDT    4.63   6.15    4   34    8  49.6  43.5 1025.2 -9.9 -9.999 -99.9 -99.99 -9.99
2019/03/26 17:42 EDT    4.81   6.31    3   33   12  49.3  43.5 1025.2 -9.9 -9.999 -99.9 -99.99 -9.99
2019/03/26 17:48 EDT    5.00   6.48    6   39   13  49.3  43.5 1025.3 -9.9 -9.999 -99.9 -99.99 -9.99
2019/03/26 17:54 EDT    5.17   6.63    7   13   12  49.1  43.5 1025.3 -9.9 -9.999 -99.9 -99.99 -9.99
2019/03/26 18:00 EDT    5.34   6.77    8   10   11  48.9  43.5 1025.4 -9.9 -9.999 -99.9 -99.99 -9.99
2019/03/26 18:06 EDT    5.50   6.92    5   40   13  49.1  43.5 1025.4 -9.9 -9.999 -99.9 -99.99 -9.99
2019/03/26 18:12 EDT    5.65   7.04    6   16   10  48.6  43.3 1025.5 -9.9 -9.999 -99.9 -99.99 -9.99
2019/03/26 18:18 EDT    5.81   7.17    5   18   11  48.6  43.3 1025.6 -9.9 -9.999 -99.9 -99.99 -9.99
2019/03/26 18:24 EDT    5.95   7.29    5   17    8  48.6  43.3 1025.6 -9.9 -9.999 -99.9 -99.99 -9.99
2019/03/26 18:30 EDT    6.10   7.39    4   27    9  48.6  43.3 1025.6 -9.9 -9.999 -99.9 -99.99 -9.99
2019/03/26 18:36 EDT    6.24   7.51    5   34    8  48.4  43.3 1025.7 -9.9 -9.999 -99.9 -99.99 -9.99
2019/03/26 18:42 EDT    6.37   7.61    4   27   11  48.4  43.3 1025.7 -9.9 -9.999 -99.9 -99.99 -9.99
2019/03/26 18:48 EDT    6.51   7.72    4   20    9  48.0  43.3 1025.8 -9.9 -9.999 -99.9 -99.99 -9.99
2019/03/26 18:54 EDT    6.64   7.81    3   27    8  47.8  43.3 1025.9 -9.9 -9.999 -99.9 -99.99 -9.99
2019/03/26 19:00 EDT    6.77   7.90    4   31    8  47.5  43.3 1025.9 -9.9 -9.999 -99.9 -99.99 -9.99
2019/03/26 19:06 EDT    6.89   7.98    5   39   11  47.3  43.3 1026.0 -9.9 -9.999 -99.9 -99.99 -9.99
2019/03/26 19:12 EDT    7.01   8.05    3   29   11  46.9  43.3 1026.1 -9.9 -9.999 -99.9 -99.99 -9.99
2019/03/26 19:18 EDT    7.12   8.12    3   28    6  46.6  43.3 1026.1 -9.9 -9.999 -99.9 -99.99 -9.99
2019/03/26 19:24 EDT    7.23   8.19    3   23    6  46.6  43.3 1026.3 -9.9 -9.999 -99.9 -99.99 -9.99
2019/03/26 19:30 EDT    7.33   8.25    4   17    8  46.2  43.3 1026.3 -9.9 -9.999 -99.9 -99.99 -9.99
2019/03/26 19:36 EDT    7.43   8.30    5   10    7  46.0  43.3 1026.4 -9.9 -9.999 -99.9 -99.99 -9.99
2019/03/26 19:42 EDT    7.51   8.34    4   13    8  45.9  43.3 1026.5 -9.9 -9.999 -99.9 -99.99 -9.99
2019/03/26 19:48 EDT    7.59   8.37    4   12    7  45.5  43.3 1026.6 -9.9 -9.999 -99.9 -99.99 -9.99
2019/03/26 19:54 EDT    7.65   8.40    4   14    6  45.3  43.3 1026.7 -9.9 -9.999 -99.9 -99.99 -9.99
2019/03/26 20:00 EDT    7.70   8.42    3   12    6  45.1  43.3 1026.9 -9.9 -9.999 -99.9 -99.99 -9.99
2019/03/26 20:06 EDT    7.74   8.42    3   16    5  45.0  43.3 1027.0 -9.9 -9.999 -99.9 -99.99 -9.99
2019/03/26 20:12 EDT    7.76   8.40    3    6    5  44.4  43.5 1027.1 -9.9 -9.999 -99.9 -99.99 -9.99
2019/03/26 20:18 EDT    7.78   8.38    4    1    5  43.9  43.5 1027.2 -9.9 -9.999 -99.9 -99.99 -9.99
2019/03/26 20:24 EDT    7.77   8.35    4    3    7  43.9  43.5 1027.3 -9.9 -9.999 -99.9 -99.99 -9.99
2019/03/26 20:30 EDT    7.76   8.29    4    1    6  43.7  43.5 1027.4 -9.9 -9.999 -99.9 -99.99 -9.99
2019/03/26 20:36 EDT    7.72   8.24    5    5    8  43.9  43.5 1027.5 -9.9 -9.999 -99.9 -99.99 -9.99
2019/03/26 20:42 EDT    7.68   8.17    4    8    7  44.1  43.5 1027.6 -9.9 -9.999 -99.9 -99.99 -9.99
2019/03/26 20:48 EDT    7.62   8.09    4   11    7  43.9  43.5 1027.7 -9.9 -9.999 -99.9 -99.99 -9.99
2019/03/26 20:54 EDT    7.54 -99.99 -999 -999 -999 -99.9 -99.9 -999.9 -9.9 -9.999 -99.9 -99.99 -9.99
2019/03/26 21:00 EDT    7.45 -99.99 -999 -999 -999 -99.9 -99.9 -999.9 -9.9 -9.999 -99.9 -99.99 -9.99
2019/03/26 21:06 EDT    7.36 -99.99 -999 -999 -999 -99.9 -99.9 -999.9 -9.9 -9.999 -99.9 -99.99 -9.99
2019/03/26 21:12 EDT    7.25 -99.99 -999 -999 -999 -99.9 -99.9 -999.9 -9.9 -9.999 -99.9 -99.99 -9.99
2019/03/26 21:18 EDT    7.13 -99.99 -999 -999 -999 -99.9 -99.9 -999.9 -9.9 -9.999 -99.9 -99.99 -9.99
2019/03/26 21:24 EDT    7.00 -99.99 -999 -999 -999 -99.9 -99.9 -999.9 -9.9 -9.999 -99.9 -99.99 -9.99
2019/03/26 21:30 EDT    6.86 -99.99 -999 -999 -999 -99.9 -99.9 -999.9 -9.9 -9.999 -99.9 -99.99 -9.99
2019/03/26 21:36 EDT    6.72 -99.99 -999 -999 -999 -99.9 -99.9 -999.9 -9.9 -9.999 -99.9 -99.99 -9.99
2019/03/26 21:42 EDT    6.57 -99.99 -999 -999 -999 -99.9 -99.9 -999.9 -9.9 -9.999 -99.9 -99.99 -9.99
2019/03/26 21:48 EDT    6.42 -99.99 -999 -999 -999 -99.9 -99.9 -999.9 -9.9 -9.999 -99.9 -99.99 -9.99
2019/03/26 21:54 EDT    6.26 -99.99 -999 -999 -999 -99.9 -99.9 -999.9 -9.9 -9.999 -99.9 -99.99 -9.99
2019/03/26 22:00 EDT    6.10 -99.99 -999 -999 -999 -99.9 -99.9 -999.9 -9.9 -9.999 -99.9 -99.99 -9.99
2019/03/26 22:06 EDT    5.94 -99.99 -999 -999 -999 -99.9 -99.9 -999.9 -9.9 -9.999 -99.9 -99.99 -9.99
2019/03/26 22:12 EDT    5.78 -99.99 -999 -999 -999 -99.9 -99.9 -999.9 -9.9 -9.999 -99.9 -99.99 -9.99
2019/03/26 22:18 EDT    5.61 -99.99 -999 -999 -999 -99.9 -99.9 -999.9 -9.9 -9.999 -99.9 -99.99 -9.99
2019/03/26 22:24 EDT    5.45 -99.99 -999 -999 -999 -99.9 -99.9 -999.9 -9.9 -9.999 -99.9 -99.99 -9.99
2019/03/26 22:30 EDT    5.29 -99.99 -999 -999 -999 -99.9 -99.9 -999.9 -9.9 -9.999 -99.9 -99.99 -9.99
2019/03/26 22:36 EDT    5.13 -99.99 -999 -999 -999 -99.9 -99.9 -999.9 -9.9 -9.999 -99.9 -99.99 -9.99
2019/03/26 22:42 EDT    4.97 -99.99 -999 -999 -999 -99.9 -99.9 -999.9 -9.9 -9.999 -99.9 -99.99 -9.99
2019/03/26 22:48 EDT    4.81 -99.99 -999 -999 -999 -99.9 -99.9 -999.9 -9.9 -9.999 -99.9 -99.99 -9.99
2019/03/26 22:54 EDT    4.65 -99.99 -999 -999 -999 -99.9 -99.9 -999.9 -9.9 -9.999 -99.9 -99.99 -9.99
2019/03/26 23:00 EDT    4.50 -99.99 -999 -999 -999 -99.9 -99.9 -999.9 -9.9 -9.999 -99.9 -99.99 -9.99
2019/03/26 23:06 EDT    4.34 -99.99 -999 -999 -999 -99.9 -99.9 -999.9 -9.9 -9.999 -99.9 -99.99 -9.99
2019/03/26 23:12 EDT    4.19 -99.99 -999 -999 -999 -99.9 -99.9 -999.9 -9.9 -9.999 -99.9 -99.99 -9.99
2019/03/26 23:18 EDT    4.04 -99.99 -999 -999 -999 -99.9 -99.9 -999.9 -9.9 -9.999 -99.9 -99.99 -9.99
2019/03/26 23:24 EDT    3.89 -99.99 -999 -999 -999 -99.9 -99.9 -999.9 -9.9 -9.999 -99.9 -99.99 -9.99
2019/03/26 23:30 EDT    3.75 -99.99 -999 -999 -999 -99.9 -99.9 -999.9 -9.9 -9.999 -99.9 -99.99 -9.99
2019/03/26 23:36 EDT    3.60 -99.99 -999 -999 -999 -99.9 -99.9 -999.9 -9.9 -9.999 -99.9 -99.99 -9.99
2019/03/26 23:42 EDT    3.46 -99.99 -999 -999 -999 -99.9 -99.9 -999.9 -9.9 -9.999 -99.9 -99.99 -9.99
2019/03/26 23:48 EDT    3.32 -99.99 -999 -999 -999 -99.9 -99.9 -999.9 -9.9 -9.999 -99.9 -99.99 -9.99
2019/03/26 23:54 EDT    3.19 -99.99 -999 -999 -999 -99.9 -99.9 -999.9 -9.9 -9.999 -99.9 -99.99 -9.99
2019/03/27 00:00 EDT    3.05 -99.99 -999 -999 -999 -99.9 -99.9 -999.9 -9.9 -9.999 -99.9 -99.99 -9.99
2019/03/27 00:06 EDT    2.92 -99.99 -999 -999 -999 -99.9 -99.9 -999.9 -9.9 -9.999 -99.9 -99.99 -9.99
2019/03/27 00:12 EDT    2.80 -99.99 -999 -999 -999 -99.9 -99.9 -999.9 -9.9 -9.999 -99.9 -99.99 -9.99
2019/03/27 00:18 EDT    2.67 -99.99 -999 -999 -999 -99.9 -99.9 -999.9 -9.9 -9.999 -99.9 -99.99 -9.99
2019/03/27 00:24 EDT    2.55 -99.99 -999 -999 -999 -99.9 -99.9 -999.9 -9.9 -9.999 -99.9 -99.99 -9.99
2019/03/27 00:30 EDT    2.43 -99.99 -999 -999 -999 -99.9 -99.9 -999.9 -9.9 -9.999 -99.9 -99.99 -9.99
2019/03/27 00:36 EDT    2.32 -99.99 -999 -999 -999 -99.9 -99.9 -999.9 -9.9 -9.999 -99.9 -99.99 -9.99
2019/03/27 00:42 EDT    2.20 -99.99 -999 -999 -999 -99.9 -99.9 -999.9 -9.9 -9.999 -99.9 -99.99 -9.99
2019/03/27 00:48 EDT    2.09 -99.99 -999 -999 -999 -99.9 -99.9 -999.9 -9.9 -9.999 -99.9 -99.99 -9.99
2019/03/27 00:54 EDT    1.99 -99.99 -999 -999 -999 -99.9 -99.9 -999.9 -9.9 -9.999 -99.9 -99.99 -9.99
2019/03/27 01:00 EDT    1.88 -99.99 -999 -999 -999 -99.9 -99.9 -999.9 -9.9 -9.999 -99.9 -99.99 -9.99
2019/03/27 01:06 EDT    1.78 -99.99 -999 -999 -999 -99.9 -99.9 -999.9 -9.9 -9.999 -99.9 -99.99 -9.99
2019/03/27 01:12 EDT    1.68 -99.99 -999 -999 -999 -99.9 -99.9 -999.9 -9.9 -9.999 -99.9 -99.99 -9.99
2019/03/27 01:18 EDT    1.58 -99.99 -999 -999 -999 -99.9 -99.9 -999.9 -9.9 -9.999 -99.9 -99.99 -9.99
2019/03/27 01:24 EDT    1.48 -99.99 -999 -999 -999 -99.9 -99.9 -999.9 -9.9 -9.999 -99.9 -99.99 -9.99
2019/03/27 01:30 EDT    1.38 -99.99 -999 -999 -999 -99.9 -99.9 -999.9 -9.9 -9.999 -99.9 -99.99 -9.99
2019/03/27 01:36 EDT    1.28 -99.99 -999 -999 -999 -99.9 -99.9 -999.9 -9.9 -9.999 -99.9 -99.99 -9.99
2019/03/27 01:42 EDT    1.18 -99.99 -999 -999 -999 -99.9 -99.9 -999.9 -9.9 -9.999 -99.9 -99.99 -9.99
2019/03/27 01:48 EDT    1.09 -99.99 -999 -999 -999 -99.9 -99.9 -999.9 -9.9 -9.999 -99.9 -99.99 -9.99
2019/03/27 01:54 EDT    0.99 -99.99 -999 -999 -999 -99.9 -99.9 -999.9 -9.9 -9.999 -99.9 -99.99 -9.99
2019/03/27 02:00 EDT    0.90 -99.99 -999 -999 -999 -99.9 -99.9 -999.9 -9.9 -9.999 -99.9 -99.99 -9.99
2019/03/27 02:06 EDT    0.81 -99.99 -999 -999 -999 -99.9 -99.9 -999.9 -9.9 -9.999 -99.9 -99.99 -9.99
2019/03/27 02:12 EDT    0.72 -99.99 -999 -999 -999 -99.9 -99.9 -999.9 -9.9 -9.999 -99.9 -99.99 -9.99
2019/03/27 02:18 EDT    0.64 -99.99 -999 -999 -999 -99.9 -99.9 -999.9 -9.9 -9.999 -99.9 -99.99 -9.99
2019/03/27 02:24 EDT    0.55 -99.99 -999 -999 -999 -99.9 -99.9 -999.9 -9.9 -9.999 -99.9 -99.99 -9.99
2019/03/27 02:30 EDT    0.48 -99.99 -999 -999 -999 -99.9 -99.9 -999.9 -9.9 -9.999 -99.9 -99.99 -9.99
2019/03/27 02:36 EDT    0.41 -99.99 -999 -999 -999 -99.9 -99.9 -999.9 -9.9 -9.999 -99.9 -99.99 -9.99
2019/03/27 02:42 EDT    0.35 -99.99 -999 -999 -999 -99.9 -99.9 -999.9 -9.9 -9.999 -99.9 -99.99 -9.99
2019/03/27 02:48 EDT    0.30 -99.99 -999 -999 -999 -99.9 -99.9 -999.9 -9.9 -9.999 -99.9 -99.99 -9.99
2019/03/27 02:54 EDT    0.26 -99.99 -999 -999 -999 -99.9 -99.9 -999.9 -9.9 -9.999 -99.9 -99.99 -9.99

Revised: 08/08/2018
NOAA / National Ocean Service
Web site owner: Center for Operational Oceanographic Products and Services